Time;durP1;ratioP1;P1;durP2;ratioP2;P2;SDS_P1;SDS_P2;PMS_P1;PMS_P2;Temp;Humidity;BMP_temperature;BMP_pressure;BME280_temperature;BME280_humidity;BME280_pressure;Samples;Min_cycle;Max_cycle;Signal;HPM_P1;HPM_P2
2022/04/11 00:00:18;;;;;;;7.75;4.90;;;;;;;6.69;51.03;98930.75;1727058;82;20986;-65
2022/04/11 00:02:44;;;;;;;11.65;5.30;;;;;;;6.66;51.19;98927.93;1727671;82;21015;-64
2022/04/11 00:05:10;;;;;;;6.33;5.00;;;;;;;6.64;51.30;98934.36;1723721;82;21226;-64
2022/04/11 00:07:38;;;;;;;8.20;4.83;;;;;;;6.63;51.33;98934.84;1725973;82;20879;-64
2022/04/11 00:10:06;;;;;;;8.93;5.80;;;;;;;6.61;51.42;98935.99;1727319;82;20923;-62
2022/04/11 00:12:36;;;;;;;9.20;6.45;;;;;;;6.58;51.52;98937.14;1726764;82;20954;-64
2022/04/11 00:15:08;;;;;;;10.13;6.40;;;;;;;6.56;51.64;98937.80;1727985;82;21013;-64
2022/04/11 00:17:36;;;;;;;12.07;5.58;;;;;;;6.55;51.75;98941.41;1726131;82;21548;-63
2022/04/11 00:20:05;;;;;;;12.33;6.92;;;;;;;6.52;51.90;98945.69;1727504;82;21578;-63
2022/04/11 00:22:36;;;;;;;12.60;7.20;;;;;;;6.50;51.98;98946.83;1726779;82;20998;-63
2022/04/11 00:25:04;;;;;;;9.63;6.35;;;;;;;6.47;52.10;98944.50;1727333;82;21074;-63
2022/04/11 00:27:32;;;;;;;10.58;6.60;;;;;;;6.45;52.19;98951.76;1725566;81;20926;-64
2022/04/11 00:29:59;;;;;;;9.68;6.15;;;;;;;6.44;52.26;98956.73;1754085;81;21162;-64
2022/04/11 00:32:27;;;;;;;11.83;7.12;;;;;;;6.43;52.32;98955.06;1754731;81;20934;-62
2022/04/11 00:34:54;;;;;;;15.53;7.87;;;;;;;6.41;52.43;98961.83;1726450;81;21110;-62
2022/04/11 00:37:21;;;;;;;13.35;7.20;;;;;;;6.40;52.54;98962.80;1754900;80;21420;-63
2022/04/11 00:39:49;;;;;;;13.50;8.65;;;;;;;6.38;52.57;98963.46;1755593;81;21452;-64
2022/04/11 00:42:16;;;;;;;17.48;9.20;;;;;;;6.34;52.69;98961.27;1750576;81;21353;-64
2022/04/11 00:44:42;;;;;;;17.65;8.98;;;;;;;6.31;52.78;98958.44;1752323;81;20883;-64
2022/04/11 00:47:09;;;;;;;10.63;6.30;;;;;;;6.28;52.88;98961.91;1751717;81;21559;-63
2022/04/11 00:49:35;;;;;;;7.35;4.97;;;;;;;6.26;52.94;98963.37;1749633;81;20958;-66
2022/04/11 00:52:05;;;;;;;8.23;4.53;;;;;;;6.24;52.97;98962.70;1755935;81;21061;-64
2022/04/11 00:54:33;;;;;;;5.12;3.72;;;;;;;6.20;53.09;98963.49;1755557;81;21314;-61
2022/04/11 00:57:00;;;;;;;6.08;3.60;;;;;;;6.20;53.11;98956.89;1756506;81;20875;-63
2022/04/11 00:59:26;;;;;;;6.35;3.87;;;;;;;6.18;53.18;98956.22;1753829;81;20946;-64
2022/04/11 01:01:53;;;;;;;6.15;3.50;;;;;;;6.19;53.28;98951.77;1756619;81;20974;-64
2022/04/11 01:04:26;;;;;;;7.45;5.10;;;;;;;6.18;53.39;98949.62;1754707;81;20998;-64
2022/04/11 01:06:55;;;;;;;9.88;5.12;;;;;;;6.15;53.56;98946.48;1756395;81;21811;-63
2022/04/11 01:09:24;;;;;;;9.68;5.55;;;;;;;6.15;53.63;98949.92;1754537;81;20998;-64
2022/04/11 01:11:51;;;;;;;11.63;6.10;;;;;;;6.17;53.68;98952.43;1756227;81;21049;-63
2022/04/11 01:14:19;;;;;;;10.28;6.85;;;;;;;6.16;53.71;98952.91;1756283;81;20926;-64
2022/04/11 01:16:50;;;;;;;10.08;6.70;;;;;;;6.16;53.75;98958.20;1755778;81;20942;-64
2022/04/11 01:19:17;;;;;;;11.12;6.72;;;;;;;6.14;53.84;98956.70;1753855;81;22326;-62
2022/04/11 01:21:45;;;;;;;8.95;6.67;;;;;;;6.08;54.00;98952.86;1756142;81;21527;-64
2022/04/11 01:24:13;;;;;;;12.20;8.05;;;;;;;6.10;53.99;98956.16;1742795;81;20895;-63
2022/04/11 01:26:40;;;;;;;10.38;7.05;;;;;;;6.08;54.13;98956.81;1755883;81;20895;-64
2022/04/11 01:29:08;;;;;;;13.70;8.65;;;;;;;6.06;54.23;98957.95;1742907;81;21006;-64
2022/04/11 01:31:37;;;;;;;15.53;8.88;;;;;;;6.05;54.32;98954.97;1727174;82;21248;-63
2022/04/11 01:34:04;;;;;;;13.48;8.33;;;;;;;6.02;54.42;98956.10;1727138;82;21005;-63
2022/04/11 01:36:32;;;;;;;12.10;7.92;;;;;;;6.02;54.48;98956.63;1725324;82;21441;-63
2022/04/11 01:38:59;;;;;;;12.80;7.65;;;;;;;6.01;54.56;98968.98;1727891;82;20918;-64
2022/04/11 01:41:26;;;;;;;17.02;8.50;;;;;;;5.98;54.63;98956.09;1727449;82;20950;-61
2022/04/11 01:43:53;;;;;;;12.30;7.72;;;;;;;5.98;54.70;98955.25;1725516;82;21232;-62
2022/04/11 01:46:20;;;;;;;13.50;8.05;;;;;;;5.97;54.75;98953.61;1726861;82;21007;-64
2022/04/11 01:48:48;;;;;;;12.15;6.80;;;;;;;5.95;54.77;98952.43;1727380;82;21397;-63
2022/04/11 01:51:16;;;;;;;9.33;6.55;;;;;;;5.94;54.85;98958.71;1727613;82;21509;-62
2022/04/11 01:53:43;;;;;;;11.63;7.17;;;;;;;5.92;54.86;98954.05;1727844;82;20944;-64
2022/04/11 01:56:11;;;;;;;11.97;6.65;;;;;;;5.91;54.87;98960.33;1726452;82;22732;-63
2022/04/11 01:58:38;;;;;;;14.55;6.78;;;;;;;5.91;54.87;98955.05;1730795;82;20990;-63
2022/04/11 02:01:04;;;;;;;11.05;6.80;;;;;;;5.89;54.96;98955.67;1697003;82;20926;-63
2022/04/11 02:03:33;;;;;;;11.38;6.58;;;;;;;5.88;55.05;98965.08;1727804;82;21416;-63
2022/04/11 02:06:00;;;;;;;9.28;6.10;;;;;;;5.88;55.07;98961.95;1727770;82;20935;-62
2022/04/11 02:08:28;;;;;;;12.68;5.90;;;;;;;5.89;55.06;98962.27;1726887;82;21267;-62
2022/04/11 02:10:58;;;;;;;10.18;5.92;;;;;;;5.88;55.11;98961.95;1726930;82;21476;-62
2022/04/11 02:13:26;;;;;;;11.63;6.00;;;;;;;5.89;55.06;98962.79;1727907;82;21492;-64
2022/04/11 02:15:54;;;;;;;9.93;5.92;;;;;;;5.88;55.08;98965.91;1727571;82;21554;-63
2022/04/11 02:18:21;;;;;;;9.63;5.58;;;;;;;5.86;55.09;98966.56;1727116;82;20931;-65
2022/04/11 02:20:49;;;;;;;8.43;5.42;;;;;;;5.84;55.12;98961.06;1725679;82;21006;-65
2022/04/11 02:23:18;;;;;;;9.95;6.78;;;;;;;5.82;55.17;98963.84;1726165;82;20966;-64
2022/04/11 02:25:46;;;;;;;12.53;6.90;;;;;;;5.79;55.19;98972.06;1732250;82;21551;-62
2022/04/11 02:28:13;;;;;;;12.98;7.47;;;;;;;5.78;55.28;98970.91;1726478;82;21658;-63
2022/04/11 02:30:40;;;;;;;14.43;9.03;;;;;;;5.77;55.35;98971.87;1734684;81;20939;-63
2022/04/11 02:33:08;;;;;;;12.95;8.53;;;;;;;5.77;55.40;98967.92;1734596;82;21130;-64
2022/04/11 02:35:35;;;;;;;14.03;8.50;;;;;;;5.78;55.40;98970.42;1735758;82;20935;-61
2022/04/11 02:38:01;;;;;;;14.23;8.90;;;;;;;5.78;55.35;98965.14;1735944;82;20951;-63
2022/04/11 02:40:29;;;;;;;13.98;9.10;;;;;;;5.81;55.28;98973.25;1735915;82;20959;-63
2022/04/11 02:43:14;;;;;;;14.45;9.33;;;;;;;5.79;55.31;98973.89;1733860;82;21025;-63
2022/04/11 02:45:44;;;;;;;15.32;8.73;;;;;;;5.77;55.40;98972.71;1699539;84;21007;-64
2022/04/11 02:48:12;;;;;;;15.15;9.30;;;;;;;5.78;55.39;98975.70;1689424;84;21341;-64
2022/04/11 02:50:41;;;;;;;15.13;9.63;;;;;;;5.78;55.40;98970.91;1680663;85;20900;-63
2022/04/11 02:53:09;;;;;;;15.43;9.00;;;;;;;5.76;55.45;98971.05;1681988;85;20955;-62
2022/04/11 02:55:36;;;;;;;12.70;8.70;;;;;;;5.76;55.43;98978.96;1700270;84;20989;-62
2022/04/11 02:58:03;;;;;;;12.88;7.35;;;;;;;5.73;55.46;98979.29;1700156;84;21253;-62
2022/04/11 03:00:31;;;;;;;10.45;7.03;;;;;;;5.73;55.47;98983.25;1700133;84;20918;-60
2022/04/11 03:02:58;;;;;;;7.53;5.83;;;;;;;5.71;55.52;98984.38;1699062;84;20990;-64
2022/04/11 03:05:27;;;;;;;6.65;4.55;;;;;;;5.65;55.58;98977.06;1700313;84;21065;-64
2022/04/11 03:07:55;;;;;;;9.83;4.67;;;;;;;5.61;55.67;98976.03;1700326;84;21591;-63
2022/04/11 03:10:21;;;;;;;6.90;4.28;;;;;;;5.61;55.67;98977.84;1700205;84;21257;-62
2022/04/11 03:12:51;;;;;;;7.42;4.70;;;;;;;5.60;55.67;98982.80;1679624;85;20910;-64
2022/04/11 03:15:18;;;;;;;9.20;4.85;;;;;;;5.60;55.63;98976.20;1700174;84;20906;-61
2022/04/11 03:17:45;;;;;;;7.33;5.30;;;;;;;5.59;55.63;98983.77;1700171;84;21479;-63
2022/04/11 03:20:13;;;;;;;8.08;5.17;;;;;;;5.59;55.62;98971.89;1689230;84;21057;-63
2022/04/11 03:22:41;;;;;;;9.85;6.03;;;;;;;5.58;55.63;98978.97;1711097;83;21284;-63
2022/04/11 03:25:09;;;;;;;10.10;6.47;;;;;;;5.57;55.60;98973.38;1699848;84;21590;-63
2022/04/11 03:27:37;;;;;;;11.57;6.70;;;;;;;5.58;55.63;98982.09;1700280;84;21512;-63
2022/04/11 03:30:08;;;;;;;10.30;6.37;;;;;;;5.56;55.67;98975.66;1696414;81;21717;-62
2022/04/11 03:32:36;;;;;;;11.53;7.62;;;;;;;5.58;55.67;98979.45;1668420;84;21028;-65
2022/04/11 03:35:07;;;;;;;10.38;7.30;;;;;;;5.57;55.68;98982.61;1694221;84;21166;-64
2022/04/11 03:37:34;;;;;;;13.43;6.92;;;;;;;5.58;55.74;98977.66;1694273;84;21529;-65
2022/04/11 03:40:03;;;;;;;10.50;7.55;;;;;;;5.61;55.72;98978.67;1693207;84;20910;-63
2022/04/11 03:42:30;;;;;;;11.15;7.33;;;;;;;5.59;55.76;98983.28;1694200;84;20978;-63
2022/04/11 03:44:56;;;;;;;12.80;8.40;;;;;;;5.61;55.79;98990.55;1694208;84;20949;-64
2022/04/11 03:47:25;;;;;;;12.55;7.10;;;;;;;5.65;55.78;98987.62;1694772;84;21272;-63
2022/04/11 03:49:53;;;;;;;11.90;8.00;;;;;;;5.69;55.85;98983.67;1694188;84;21397;-63
2022/04/11 03:52:23;;;;;;;11.05;7.60;;;;;;;5.71;55.84;98993.10;1693836;84;21421;-63
2022/04/11 03:54:50;;;;;;;14.70;7.80;;;;;;;5.78;55.77;98988.90;1694244;84;20946;-63
2022/04/11 03:57:17;;;;;;;13.62;8.85;;;;;;;5.84;55.71;98992.75;1692463;84;20946;-62
2022/04/11 03:59:44;;;;;;;11.33;8.08;;;;;;;5.90;55.60;98996.95;1694308;84;21162;-63
2022/04/11 04:02:11;;;;;;;9.45;6.72;;;;;;;5.96;55.51;98996.34;1688342;84;21053;-62
2022/04/11 04:04:39;;;;;;;10.85;7.03;;;;;;;6.08;55.22;99003.03;1679360;85;20912;-63
2022/04/11 04:07:07;;;;;;;11.88;5.78;;;;;;;6.12;55.15;99003.56;1694211;84;21005;-63
2022/04/11 04:09:35;;;;;;;6.72;5.08;;;;;;;6.18;55.01;99003.77;1694291;84;21005;-62
2022/04/11 04:12:02;;;;;;;8.05;5.85;;;;;;;6.20;54.92;99004.43;1694200;84;21169;-61
2022/04/11 04:14:41;;;;;;;7.50;5.03;;;;;;;6.28;54.84;99012.09;1693840;84;20981;-62
2022/04/11 04:17:09;;;;;;;8.78;5.42;;;;;;;6.38;54.71;99014.98;1693954;84;20950;-64
2022/04/11 04:19:38;;;;;;;7.15;5.35;;;;;;;6.52;54.53;99022.81;1693513;84;20994;-63
2022/04/11 04:22:06;;;;;;;10.43;6.35;;;;;;;6.75;54.32;99021.33;1693673;84;21546;-62
2022/04/11 04:24:36;;;;;;;9.50;5.75;;;;;;;6.92;54.10;99030.98;1694385;84;22095;-62
2022/04/11 04:27:05;;;;;;;13.83;6.05;;;;;;;7.17;53.75;99031.94;1694114;84;20995;-63
2022/04/11 04:29:34;;;;;;;13.10;6.58;;;;;;;7.42;53.17;99031.02;1700689;82;20968;-62
2022/04/11 04:32:01;;;;;;;8.50;4.78;;;;;;;7.64;52.61;99037.02;1755318;81;20919;-62
2022/04/11 04:34:32;;;;;;;6.20;4.58;;;;;;;7.81;52.12;99038.72;1754996;81;20939;-62
2022/04/11 04:37:01;;;;;;;8.10;4.85;;;;;;;7.98;51.66;99038.23;1754994;81;21681;-63
2022/04/11 04:39:28;;;;;;;6.08;4.72;;;;;;;8.26;51.31;99038.75;1756356;81;21001;-64
2022/04/11 04:41:54;;;;;;;8.55;5.72;;;;;;;8.65;50.94;99043.23;1755622;81;21669;-61
2022/04/11 04:44:23;;;;;;;8.35;5.60;;;;;;;9.20;50.21;99040.55;1756444;81;21440;-63
2022/04/11 04:46:51;;;;;;;9.38;6.20;;;;;;;9.65;49.14;99045.16;1755390;81;21425;-64
2022/04/11 04:49:22;;;;;;;7.25;5.70;;;;;;;10.13;47.90;99044.55;1755289;81;21233;-64
2022/04/11 04:51:51;;;;;;;8.70;4.97;;;;;;;10.58;47.14;99041.84;1755701;81;20895;-64
2022/04/11 04:54:18;;;;;;;8.45;5.00;;;;;;;11.09;46.00;99040.13;1756340;81;21051;-64
2022/04/11 04:56:49;;;;;;;9.58;4.72;;;;;;;11.57;45.09;99043.53;1755045;81;20993;-64
2022/04/11 04:59:16;;;;;;;7.47;5.10;;;;;;;12.04;43.95;99045.72;1755629;81;20974;-64
2022/04/11 05:01:43;;;;;;;7.17;4.62;;;;;;;12.54;43.08;99047.38;1748568;81;21178;-63
2022/04/11 05:04:10;;;;;;;8.70;4.90;;;;;;;12.94;41.96;99044.50;1756222;81;20882;-64
2022/04/11 05:06:39;;;;;;;8.20;5.15;;;;;;;13.17;41.01;99044.25;1755362;80;20938;-65
2022/04/11 05:09:07;;;;;;;17.30;10.18;;;;;;;13.26;40.43;99043.91;1755818;81;21006;-63
2022/04/11 05:11:34;;;;;;;8.58;6.22;;;;;;;13.26;40.04;99049.76;1753445;81;21045;-64
2022/04/11 05:14:02;;;;;;;12.58;5.72;;;;;;;13.21;39.81;99052.20;1755058;81;21251;-63
2022/04/11 05:16:31;;;;;;;7.70;5.72;;;;;;;13.14;39.66;99055.35;1754601;81;20934;-66
2022/04/11 05:18:58;;;;;;;10.98;5.30;;;;;;;13.06;39.55;99056.81;1755098;81;20990;-63
2022/04/11 05:21:26;;;;;;;12.88;6.65;;;;;;;12.97;39.62;99061.47;1752816;81;21692;-64
2022/04/11 05:23:53;;;;;;;10.32;5.72;;;;;;;12.89;39.63;99062.95;1755199;81;21002;-66
2022/04/11 05:26:21;;;;;;;9.53;5.45;;;;;;;12.80;39.70;99065.47;1754064;81;21764;-65
2022/04/11 05:28:50;;;;;;;8.58;6.17;;;;;;;12.79;39.86;99061.14;1754417;81;20965;-64
2022/04/11 05:31:18;;;;;;;8.35;5.83;;;;;;;12.89;39.84;99061.11;1728063;81;21457;-66
2022/04/11 05:33:46;;;;;;;7.80;5.25;;;;;;;13.07;39.74;99065.15;1723852;82;21539;-63
2022/04/11 05:36:16;;;;;;;7.75;4.97;;;;;;;13.45;39.29;99055.72;1725266;83;21010;-62
2022/04/11 05:38:44;;;;;;;7.03;5.25;;;;;;;13.93;38.91;99053.82;1726739;82;21168;-64
2022/04/11 05:41:12;;;;;;;8.78;6.50;;;;;;;14.60;38.19;99053.76;1713872;82;20926;-63
2022/04/11 05:43:41;;;;;;;11.03;7.53;;;;;;;15.32;37.19;99045.09;1725370;82;21456;-65
2022/04/11 05:46:10;;;;;;;11.50;7.20;;;;;;;15.95;36.16;99056.00;1706780;83;21073;-61
2022/04/11 05:48:40;;;;;;;13.85;7.62;;;;;;;16.59;34.98;99049.08;1727453;82;20985;-63
2022/04/11 05:51:07;;;;;;;9.83;6.67;;;;;;;17.04;34.13;99056.42;1728092;82;22105;-63
2022/04/11 05:53:33;;;;;;;14.00;7.42;;;;;;;17.53;33.44;99055.51;1727643;82;20888;-63
2022/04/11 05:56:01;;;;;;;12.25;8.13;;;;;;;18.02;32.96;99047.73;1725231;82;20926;-64
2022/04/11 05:58:29;;;;;;;15.85;9.28;;;;;;;18.59;32.02;99053.04;1727847;82;20903;-61
2022/04/11 06:00:58;;;;;;;18.10;10.00;;;;;;;18.91;31.28;99044.91;1727055;82;21492;-66
2022/04/11 06:03:25;;;;;;;17.37;10.05;;;;;;;19.03;30.49;99048.45;1726955;82;21315;-64
2022/04/11 06:05:53;;;;;;;12.13;9.38;;;;;;;18.94;30.49;99052.53;1725432;82;20894;-63
2022/04/11 06:08:20;;;;;;;20.15;11.53;;;;;;;18.80;30.35;99048.41;1727862;82;20914;-64
2022/04/11 06:10:47;;;;;;;19.32;11.95;;;;;;;18.52;30.20;99055.82;1728030;82;20994;-63
2022/04/11 06:13:16;;;;;;;16.85;11.60;;;;;;;18.13;30.44;99059.90;1727740;82;21029;-66
2022/04/11 06:15:43;;;;;;;19.23;11.53;;;;;;;17.82;30.73;99064.98;1727195;82;21141;-67
2022/04/11 06:18:10;;;;;;;17.98;11.33;;;;;;;17.51;30.96;99062.44;1710982;82;20959;-64
2022/04/11 06:20:39;;;;;;;16.35;10.85;;;;;;;17.23;31.29;99068.31;1725318;82;20971;-64
2022/04/11 06:23:07;;;;;;;15.43;10.63;;;;;;;16.91;31.52;99070.81;1727979;82;21583;-64
2022/04/11 06:25:34;;;;;;;16.12;10.90;;;;;;;16.70;31.92;99073.88;1725944;82;21057;-63
2022/04/11 06:28:04;;;;;;;16.65;11.70;;;;;;;16.56;32.07;99077.70;1727491;82;20964;-64
2022/04/11 06:30:32;;;;;;;14.03;10.05;;;;;;;16.44;32.32;99073.53;1738372;80;20903;-66
2022/04/11 06:32:59;;;;;;;12.33;7.97;;;;;;;16.51;32.19;99072.13;1761167;80;21020;-65
2022/04/11 06:35:25;;;;;;;10.88;7.30;;;;;;;16.63;32.08;99075.81;1759624;80;21037;-64
2022/04/11 06:37:52;;;;;;;14.47;9.70;;;;;;;16.74;32.20;99078.31;1760795;80;20898;-67
2022/04/11 06:40:20;;;;;;;16.07;10.72;;;;;;;17.15;31.79;99071.83;1761380;80;21168;-61
2022/04/11 06:42:47;;;;;;;15.75;9.30;;;;;;;17.37;31.40;99077.06;1761898;80;21469;-64
2022/04/11 06:45:31;;;;;;;23.00;10.80;;;;;;;17.79;31.13;99080.74;1760055;81;21460;-66
2022/04/11 06:48:00;;;;;;;15.70;11.10;;;;;;;18.20;30.80;99073.25;1761313;80;21551;-63
2022/04/11 06:50:27;;;;;;;14.83;9.90;;;;;;;18.43;30.41;99078.19;1761345;80;20990;-66
2022/04/11 06:52:53;;;;;;;13.95;10.15;;;;;;;18.70;29.97;99070.55;1761661;80;21248;-65
2022/04/11 06:55:20;;;;;;;11.43;9.58;;;;;;;18.56;29.66;99075.05;1760790;81;20997;-64
2022/04/11 06:57:48;;;;;;;12.58;9.88;;;;;;;18.36;29.68;99076.13;1761869;80;20977;-64
2022/04/11 07:00:16;;;;;;;15.58;10.32;;;;;;;18.13;29.46;99080.61;1761614;80;21132;-65
2022/04/11 07:02:43;;;;;;;14.83;10.28;;;;;;;17.86;29.95;99091.72;1761548;80;20962;-65
2022/04/11 07:05:10;;;;;;;13.60;8.90;;;;;;;17.68;30.39;99086.87;1759991;80;21145;-68
2022/04/11 07:07:39;;;;;;;10.70;7.37;;;;;;;17.57;30.45;99097.06;1755553;81;21056;-64
2022/04/11 07:10:09;;;;;;;9.90;7.30;;;;;;;17.35;30.38;99091.77;1761211;80;21020;-64
2022/04/11 07:12:41;;;;;;;10.65;6.22;;;;;;;17.01;30.73;99093.97;1761382;80;21009;-64
2022/04/11 07:15:09;;;;;;;8.88;5.72;;;;;;;16.61;30.99;99098.01;1760805;80;20985;-64
2022/04/11 07:17:37;;;;;;;8.73;4.95;;;;;;;16.24;31.30;99100.21;1761653;80;21500;-63
2022/04/11 07:20:06;;;;;;;7.50;4.75;;;;;;;15.80;31.76;99101.05;1761395;80;21192;-66
2022/04/11 07:22:34;;;;;;;7.78;5.47;;;;;;;15.51;32.22;99103.73;1761447;80;21440;-67
2022/04/11 07:25:02;;;;;;;8.70;5.40;;;;;;;15.43;32.53;99103.92;1759618;80;21030;-64
2022/04/11 07:27:29;;;;;;;8.05;4.87;;;;;;;15.41;32.63;99110.81;1759994;81;21429;-64
2022/04/11 07:29:57;;;;;;;8.13;4.75;;;;;;;15.34;32.74;99105.17;1760397;80;21257;-65
2022/04/11 07:32:24;;;;;;;5.67;3.92;;;;;;;15.55;32.84;99112.16;1727505;82;20938;-64
2022/04/11 07:34:51;;;;;;;7.70;4.33;;;;;;;15.74;32.84;99115.30;1727481;82;20879;-65
2022/04/11 07:37:17;;;;;;;8.40;4.83;;;;;;;16.26;32.13;99108.34;1726774;83;20998;-65
2022/04/11 07:39:45;;;;;;;6.33;4.87;;;;;;;16.71;31.64;99109.12;1727521;82;20926;-65
2022/04/11 07:42:13;;;;;;;10.65;6.90;;;;;;;17.20;31.24;99107.75;1727506;82;21265;-64
2022/04/11 07:44:40;;;;;;;8.83;6.75;;;;;;;17.40;30.98;99106.71;1727782;82;21414;-65
2022/04/11 07:47:08;;;;;;;7.85;5.78;;;;;;;17.79;30.50;99107.13;1723397;82;20962;-65
2022/04/11 07:49:35;;;;;;;7.20;5.08;;;;;;;17.60;30.43;99107.34;1720772;82;21032;-64
2022/04/11 07:52:02;;;;;;;9.50;4.67;;;;;;;17.44;30.49;99104.69;1727789;82;20982;-65
2022/04/11 07:54:29;;;;;;;9.38;5.50;;;;;;;17.28;30.58;99114.16;1727779;82;21276;-64
2022/04/11 07:56:55;;;;;;;12.28;6.03;;;;;;;17.15;30.74;99116.97;1727935;82;20895;-65
2022/04/11 07:59:22;;;;;;;10.82;6.62;;;;;;;17.14;30.96;99115.34;1727663;82;21490;-65
2022/04/11 08:01:52;;;;;;;10.70;7.22;;;;;;;17.04;31.04;99115.03;1728096;82;21042;-65
2022/04/11 08:04:18;;;;;;;12.37;6.03;;;;;;;16.91;31.24;99115.14;1727728;82;20998;-65
2022/04/11 08:06:45;;;;;;;9.73;5.80;;;;;;;16.69;31.47;99120.57;1727755;82;21067;-65
2022/04/11 08:09:12;;;;;;;13.00;4.92;;;;;;;16.41;31.73;99118.27;1716119;82;20939;-66
2022/04/11 08:11:40;;;;;;;7.20;4.35;;;;;;;16.29;31.73;99113.80;1727770;82;21405;-64
2022/04/11 08:14:07;;;;;;;6.65;3.50;;;;;;;16.11;31.37;99111.84;1727834;82;21005;-64
2022/04/11 08:16:35;;;;;;;7.22;4.33;;;;;;;15.86;31.34;99110.40;1727736;82;21544;-66
2022/04/11 08:19:01;;;;;;;9.75;5.42;;;;;;;15.99;31.30;99113.53;1727434;82;21271;-64
2022/04/11 08:21:29;;;;;;;5.40;3.25;;;;;;;16.45;31.15;99111.41;1715882;82;21121;-65
2022/04/11 08:23:56;;;;;;;7.12;3.58;;;;;;;16.99;30.22;99112.19;1723932;82;21037;-64
2022/04/11 08:26:23;;;;;;;5.87;3.10;;;;;;;17.29;29.69;99106.92;1726955;82;20954;-65
2022/04/11 08:28:49;;;;;;;5.12;2.95;;;;;;;17.76;29.00;99105.41;1726911;82;21065;-64
2022/04/11 08:31:16;;;;;;;4.95;3.37;;;;;;;18.37;28.47;99097.15;1738442;81;21248;-65
2022/04/11 08:33:45;;;;;;;11.33;3.55;;;;;;;18.97;28.09;99094.67;1726071;81;21048;-64
2022/04/11 08:36:11;;;;;;;5.97;3.15;;;;;;;19.76;27.40;99097.28;1685759;83;21010;-65
2022/04/11 08:38:38;;;;;;;8.63;3.60;;;;;;;20.51;26.93;99097.12;1750203;81;21010;-65
2022/04/11 08:41:06;;;;;;;4.40;3.17;;;;;;;20.71;26.30;99096.95;1755859;81;20966;-66
2022/04/11 08:43:33;;;;;;;6.03;3.37;;;;;;;20.84;26.04;99092.58;1755477;81;21150;-64
2022/04/11 08:46:02;;;;;;;4.62;3.37;;;;;;;20.85;25.27;99096.10;1724642;81;21531;-66
2022/04/11 08:48:29;;;;;;;5.30;3.02;;;;;;;20.64;25.33;99099.00;1755884;81;20951;-65
2022/04/11 08:50:56;;;;;;;5.45;3.85;;;;;;;20.23;25.40;99092.55;1755870;81;20977;-65
2022/04/11 08:53:24;;;;;;;8.15;3.62;;;;;;;19.80;25.19;99096.26;1696424;83;21030;-66
2022/04/11 08:55:50;;;;;;;6.03;4.30;;;;;;;19.61;25.52;99099.64;1751233;81;21155;-64
2022/04/11 08:58:18;;;;;;;7.62;4.58;;;;;;;19.69;25.71;99098.75;1756273;81;20994;-65
2022/04/11 09:00:45;;;;;;;6.03;4.62;;;;;;;19.89;25.73;99097.02;1755047;81;20950;-66
2022/04/11 09:03:13;;;;;;;6.72;4.42;;;;;;;19.52;26.00;99092.98;1741169;81;20946;-65
2022/04/11 09:05:40;;;;;;;5.28;3.52;;;;;;;19.36;25.86;99099.89;1754863;81;20906;-64
2022/04/11 09:08:08;;;;;;;8.13;4.60;;;;;;;19.09;25.95;99096.84;1755068;81;20899;-65
2022/04/11 09:10:38;;;;;;;5.92;4.08;;;;;;;18.78;26.20;99103.06;1755535;81;21117;-65
2022/04/11 09:13:09;;;;;;;5.80;4.30;;;;;;;18.39;26.62;99101.25;1755038;81;21567;-64
2022/04/11 09:15:41;;;;;;;7.08;4.87;;;;;;;17.96;27.29;99102.48;1756052;81;21024;-65
2022/04/11 09:18:10;;;;;;;6.67;4.50;;;;;;;17.75;27.78;99102.44;1743389;81;21009;-64
2022/04/11 09:20:42;;;;;;;7.10;5.35;;;;;;;17.82;28.04;99102.65;1756467;81;21272;-65
2022/04/11 09:23:21;;;;;;;8.35;6.37;;;;;;;17.69;28.13;99104.67;1755194;81;20997;-65
2022/04/11 09:25:48;;;;;;;8.88;5.40;;;;;;;18.05;28.02;99114.05;1756091;81;21588;-64
2022/04/11 09:28:16;;;;;;;9.38;4.45;;;;;;;18.97;27.43;99107.33;1756526;81;21539;-64
2022/04/11 09:30:44;;;;;;;4.75;3.80;;;;;;;19.07;27.34;99103.52;1756528;80;20951;-65
2022/04/11 09:33:12;;;;;;;5.42;4.33;;;;;;;20.18;25.22;99097.83;1686671;83;20899;-65
2022/04/11 09:35:49;;;;;;;7.42;4.28;;;;;;;20.79;24.13;99097.90;1749768;81;21504;-65
2022/04/11 09:38:20;;;;;;;10.58;5.92;;;;;;;21.04;23.73;99098.03;1755672;81;20935;-65
2022/04/11 09:40:54;;;;;;;12.43;6.95;;;;;;;20.93;23.42;99100.55;1756928;81;20950;-64
2022/04/11 09:43:31;;;;;;;10.82;7.92;;;;;;;20.68;23.53;99102.02;1756475;81;21397;-65
2022/04/11 09:46:02;;;;;;;10.60;6.78;;;;;;;20.15;23.77;99096.98;1718818;83;20986;-64
2022/04/11 09:48:32;;;;;;;10.30;5.05;;;;;;;19.49;24.29;99097.50;1755794;81;21516;-66
2022/04/11 09:50:59;;;;;;;8.55;3.33;;;;;;;19.05;24.78;99105.11;1756456;81;20942;-65
2022/04/11 09:53:32;;;;;;;4.58;3.20;;;;;;;19.09;24.84;99109.49;1756399;81;20966;-64
2022/04/11 09:56:08;;;;;;;3.47;1.82;;;;;;;19.07;24.99;99106.21;1756944;81;21083;-64
2022/04/11 09:58:39;;;;;;;4.85;2.22;;;;;;;18.64;24.95;99116.47;1756455;81;21363;-65
2022/04/11 10:01:07;;;;;;;5.53;2.22;;;;;;;18.36;25.08;99113.83;1756729;81;21061;-65
2022/04/11 10:03:34;;;;;;;4.95;2.25;;;;;;;18.99;24.38;99110.59;1756381;81;20875;-66
2022/04/11 10:06:02;;;;;;;6.60;3.47;;;;;;;19.57;23.95;99106.05;1756066;81;20871;-64
2022/04/11 10:08:29;;;;;;;7.10;4.40;;;;;;;20.32;23.33;99108.67;1756553;81;20962;-65
2022/04/11 10:10:57;;;;;;;8.43;4.30;;;;;;;20.41;23.14;99109.11;1755256;81;20938;-67
2022/04/11 10:13:24;;;;;;;6.05;3.52;;;;;;;20.08;23.32;99094.94;1756676;81;20898;-64
2022/04/11 10:15:52;;;;;;;5.90;3.05;;;;;;;19.88;22.91;99099.41;1756836;81;20971;-65
2022/04/11 10:18:25;;;;;;;6.92;4.45;;;;;;;19.69;22.95;99100.10;1754911;81;20934;-64
2022/04/11 10:20:59;;;;;;;8.20;3.35;;;;;;;19.40;22.44;99103.77;1756095;81;20910;-64
2022/04/11 10:23:37;;;;;;;7.37;2.58;;;;;;;18.85;22.06;99099.77;1755652;81;21238;-64
2022/04/11 10:26:14;;;;;;;6.35;2.60;;;;;;;18.37;22.63;99100.67;1756628;81;21627;-65
2022/04/11 10:28:45;;;;;;;7.40;2.50;;;;;;;18.03;22.91;99103.22;1756559;81;20898;-64
2022/04/11 10:31:14;;;;;;;3.17;1.87;;;;;;;17.69;23.24;99111.39;1741794;81;20942;-63
2022/04/11 10:33:57;;;;;;;4.42;1.87;;;;;;;17.44;23.92;99114.10;1727849;82;20943;-64
2022/04/11 10:36:35;;;;;;;5.15;2.02;;;;;;;17.34;24.72;99114.34;1727802;82;21922;-65
2022/04/11 10:39:20;;;;;;;3.20;1.87;;;;;;;17.44;25.26;99109.27;1727359;82;21410;-65
2022/04/11 10:42:07;;;;;;;4.55;2.10;;;;;;;17.66;25.50;99109.97;1727773;82;20935;-65
2022/04/11 10:44:50;;;;;;;5.30;2.52;;;;;;;17.78;24.99;99104.13;1727531;82;20974;-65
2022/04/11 10:47:29;;;;;;;4.87;3.17;;;;;;;17.72;24.75;99097.50;1710400;83;21006;-64
2022/04/11 10:50:25;;;;;;;4.47;2.90;;;;;;;17.62;24.89;99093.17;1725734;82;21868;-65
2022/04/11 10:53:16;;;;;;;11.85;2.75;;;;;;;17.63;24.89;99088.91;1727751;82;20976;-64
2022/04/11 10:56:11;;;;;;;6.25;2.12;;;;;;;17.74;24.87;99085.98;1727629;82;20863;-65
2022/04/11 10:58:58;;;;;;;5.83;1.95;;;;;;;17.93;24.92;99087.61;1722091;82;20942;-67
2022/04/11 11:01:58;;;;;;;5.03;2.55;;;;;;;18.05;24.48;99088.48;1718584;82;21516;-65
2022/04/11 11:04:43;;;;;;;8.68;2.65;;;;;;;18.19;24.40;99083.22;1727650;82;21290;-65
2022/04/11 11:07:28;;;;;;;3.80;1.60;;;;;;;18.38;24.37;99087.48;1727748;82;20931;-64
2022/04/11 11:10:11;;;;;;;2.37;1.40;;;;;;;18.57;24.19;99082.88;1728036;82;20935;-66
2022/04/11 11:12:44;;;;;;;3.35;2.00;;;;;;;18.66;23.56;99078.81;1727594;82;20918;-63
2022/04/11 11:15:27;;;;;;;4.78;1.67;;;;;;;18.66;23.24;99069.91;1716293;82;21107;-65
2022/04/11 11:17:58;;;;;;;5.37;2.15;;;;;;;18.62;23.24;99078.14;1728032;82;21433;-66
2022/04/11 11:20:32;;;;;;;3.95;1.90;;;;;;;18.74;23.63;99069.57;1727753;82;20978;-64
2022/04/11 11:23:23;;;;;;;3.08;1.50;;;;;;;19.08;23.46;99064.73;1727529;82;20979;-65
2022/04/11 11:25:53;;;;;;;3.10;1.67;;;;;;;19.31;23.30;99063.37;1727465;82;20907;-64
2022/04/11 11:28:31;;;;;;;3.33;2.10;;;;;;;19.37;22.96;99065.13;1727766;82;21473;-64
2022/04/11 11:30:58;;;;;;;4.03;1.67;;;;;;;19.40;23.02;99059.79;1708011;83;21280;-63
2022/04/11 11:33:27;;;;;;;1.62;1.40;;;;;;;19.45;22.69;99049.94;1727461;81;20982;-64
2022/04/11 11:35:56;;;;;;;5.37;1.60;;;;;;;19.39;22.32;99051.42;1728000;82;21465;-64
2022/04/11 11:38:26;;;;;;;3.60;1.67;;;;;;;19.21;22.00;99048.31;1727358;82;20875;-64
2022/04/11 11:41:03;;;;;;;4.55;2.08;;;;;;;19.13;21.97;99049.20;1728015;82;20919;-65